Terminal Aerodrome Forecast
Issued by NWS Rapid City, SD

Home | Current Version | Previous Version | Text Only | Print | Product List | Glossary On
Versions: 1 2 3 4 5 6 7 8 9 10 11 12
091
FTUS43 KUNR 061127
TAFRAP
TAF
KRAP 061127Z 0612/0712 VRB05KT P6SM SCT250
     FM061600 32014KT P6SM BKN150
     FM070100 33025G38KT P6SM BKN100=

USA.gov is the U.S. government's official web portal to all federal, state and local government web resources and services.